Time;durP1;ratioP1;P1;durP2;ratioP2;P2;SDS_P1;SDS_P2;PMS_P1;PMS_P2;Temp;Humidity;BMP_temperature;BMP_pressure;BME280_temperature;BME280_humidity;BME280_pressure;Samples;Min_cycle;Max_cycle;Signal;HPM_P1;HPM_P2
2023/06/27 00:00:38;;;;;;;6.78;1.98;;;;;;;12.63;100.00;93485.41;2523345;23;20006;-84
2023/06/27 00:01:45;;;;;;;3.55;2.03;;;;;;;12.62;100.00;93479.31;2524140;23;20002;-84
2023/06/27 00:02:56;;;;;;;3.20;1.90;;;;;;;12.69;100.00;93487.19;2549066;23;20334;-85
2023/06/27 00:04:19;;;;;;;6.03;2.00;;;;;;;12.74;100.00;93491.28;2559958;23;20009;-85
2023/06/27 00:05:26;;;;;;;6.03;1.95;;;;;;;12.60;100.00;93490.47;2558103;23;20431;-84
2023/06/27 00:06:37;;;;;;;4.88;1.92;;;;;;;12.67;100.00;93480.72;2558746;23;20004;-83
2023/06/27 00:07:43;;;;;;;4.05;2.10;;;;;;;12.57;100.00;93485.16;2536021;23;20010;-83
2023/06/27 00:08:51;;;;;;;4.85;1.85;;;;;;;12.46;100.00;93481.97;2544300;23;20055;-82
2023/06/27 00:09:56;;;;;;;4.70;1.75;;;;;;;12.56;100.00;93478.31;2544721;23;20009;-81
2023/06/27 00:11:04;;;;;;;5.60;2.13;;;;;;;12.53;100.00;93487.19;2540606;23;20033;-85
2023/06/27 00:12:10;;;;;;;6.00;2.40;;;;;;;12.47;100.00;93486.94;2527477;23;20481;-82
2023/06/27 00:13:17;;;;;;;6.60;2.17;;;;;;;12.54;100.00;93488.69;2537762;23;20002;-84
2023/06/27 00:14:25;;;;;;;6.43;2.45;;;;;;;12.49;100.00;93491.88;2558705;23;20340;-83
2023/06/27 00:15:34;;;;;;;8.82;2.28;;;;;;;12.56;100.00;93491.72;2534786;23;20392;-83
2023/06/27 00:16:41;;;;;;;6.03;2.35;;;;;;;12.59;100.00;93488.94;2537707;23;20042;-83
2023/06/27 00:17:53;;;;;;;6.32;2.20;;;;;;;12.59;100.00;93486.25;2547105;23;20387;-83
2023/06/27 00:19:04;;;;;;;6.88;2.50;;;;;;;12.60;100.00;93485.09;2546231;23;20048;-84
2023/06/27 00:20:14;;;;;;;7.82;2.38;;;;;;;12.63;100.00;93483.47;2525501;23;20439;-83
2023/06/27 00:21:28;;;;;;;6.30;2.20;;;;;;;12.65;100.00;93481.16;2526245;23;20057;-82
2023/06/27 00:22:42;;;;;;;5.38;2.10;;;;;;;12.50;100.00;93488.00;2540457;23;20056;-83
2023/06/27 00:23:50;;;;;;;4.60;2.35;;;;;;;12.57;100.00;93482.50;2550638;23;20451;-85
2023/06/27 00:24:55;;;;;;;3.38;2.08;;;;;;;12.57;100.00;93482.50;2548949;23;20021;-82
2023/06/27 00:26:07;;;;;;;5.75;1.85;;;;;;;12.52;100.00;93491.03;2547128;23;20001;-85
2023/06/27 00:27:15;;;;;;;4.22;2.15;;;;;;;12.60;100.00;93492.38;2526729;23;20094;-83
2023/06/27 00:28:23;;;;;;;5.32;2.15;;;;;;;12.62;100.00;93494.63;2524711;23;20006;-83
2023/06/27 00:29:34;;;;;;;3.08;2.10;;;;;;;12.58;100.00;93490.09;2536725;23;20093;-84
2023/06/27 00:30:41;;;;;;;3.30;1.65;;;;;;;12.51;100.00;93484.94;2558432;23;20055;-84
2023/06/27 00:32:00;;;;;;;4.10;1.70;;;;;;;12.47;100.00;93489.63;2558364;23;20013;-82
2023/06/27 00:33:04;;;;;;;8.55;2.10;;;;;;;12.43;100.00;93483.56;2549709;23;20416;-83
2023/06/27 00:34:14;;;;;;;3.70;2.10;;;;;;;12.44;100.00;93490.44;2546850;23;20012;-84
2023/06/27 00:35:20;;;;;;;;;;;;;;;12.34;100.00;93480.72;2548291;23;20083;-83
2023/06/27 00:36:29;;;;;;;5.00;1.90;;;;;;;12.35;100.00;93482.22;2534569;23;19908;-85
2023/06/27 00:37:39;;;;;;;7.55;2.03;;;;;;;12.46;100.00;93476.59;2524687;23;20038;-82
2023/06/27 00:38:47;;;;;;;5.68;2.00;;;;;;;12.43;100.00;93483.56;2535410;23;20077;-84
2023/06/27 00:39:55;;;;;;;4.43;2.13;;;;;;;12.36;100.00;93478.38;2536379;23;20049;-84
2023/06/27 00:41:04;;;;;;;8.95;2.60;;;;;;;12.28;100.00;93488.47;2535059;23;20413;-83
2023/06/27 00:42:13;;;;;;;5.03;2.22;;;;;;;12.20;100.00;93481.78;2524054;23;20010;-85
2023/06/27 00:43:22;;;;;;;4.28;2.28;;;;;;;12.28;100.00;93488.47;2525130;23;20086;-83
2023/06/27 00:44:48;;;;;;;4.85;2.28;;;;;;;12.30;100.00;93486.16;2541044;23;20028;-82
2023/06/27 00:45:55;;;;;;;5.95;2.08;;;;;;;12.33;100.00;93482.63;2537455;23;20010;-83
2023/06/27 00:47:02;;;;;;;5.60;2.22;;;;;;;12.30;100.00;93490.78;2544456;23;20069;-84
2023/06/27 00:48:13;;;;;;;3.78;2.03;;;;;;;12.27;100.00;93491.59;2532887;23;20060;-83
2023/06/27 00:49:21;;;;;;;4.68;2.50;;;;;;;12.31;100.00;93486.91;2542033;23;20231;-83
2023/06/27 00:50:27;;;;;;;6.13;2.28;;;;;;;12.24;100.00;93484.38;2547451;23;20006;-83
2023/06/27 00:51:36;;;;;;;7.88;2.75;;;;;;;12.25;100.00;93500.06;2547062;23;20005;-83
2023/06/27 00:52:43;;;;;;;5.63;2.10;;;;;;;12.19;100.00;93482.94;2547581;23;20037;-84
2023/06/27 00:53:51;;;;;;;5.07;2.38;;;;;;;12.10;100.00;93491.56;2547582;23;20005;-83
2023/06/27 00:54:57;;;;;;;4.22;2.20;;;;;;;12.13;100.00;93492.66;2536359;23;20002;-82
2023/06/27 00:56:07;;;;;;;4.05;2.20;;;;;;;12.13;100.00;93500.69;2535647;23;20009;-84
2023/06/27 00:57:13;;;;;;;6.65;2.28;;;;;;;12.08;100.00;93501.94;2531859;23;20006;-82
2023/06/27 00:58:15;;;;;;;4.28;2.20;;;;;;;12.08;100.00;93498.50;2538504;23;20009;-83
2023/06/27 00:59:16;;;;;;;4.75;2.42;;;;;;;12.16;100.00;93501.78;2559045;23;20092;-82
2023/06/27 01:00:20;;;;;;;4.22;2.25;;;;;;;12.10;100.00;93494.22;2558678;23;20387;-84
2023/06/27 01:01:21;;;;;;;8.13;2.42;;;;;;;12.06;100.00;93490.88;2547615;23;20036;-84
2023/06/27 01:02:24;;;;;;;6.88;2.80;;;;;;;12.15;100.00;93492.97;2546298;23;20053;-84
2023/06/27 01:03:25;;;;;;;6.90;2.20;;;;;;;12.20;100.00;93497.09;2546755;23;20006;-84
2023/06/27 01:04:32;;;;;;;10.70;2.65;;;;;;;12.17;100.00;93498.69;2546105;23;20025;-85
2023/06/27 01:05:41;;;;;;;5.45;2.45;;;;;;;12.18;100.00;93494.84;2546292;23;20060;-84
2023/06/27 01:06:52;;;;;;;4.57;2.03;;;;;;;12.15;100.00;93497.59;2535709;23;20029;-83
2023/06/27 01:08:13;;;;;;;6.65;2.22;;;;;;;12.19;100.00;93500.94;2538163;23;20006;-85
2023/06/27 01:09:36;;;;;;;4.38;1.90;;;;;;;12.23;100.00;93493.59;2549654;23;20008;-85
2023/06/27 01:10:46;;;;;;;5.40;2.45;;;;;;;12.21;100.00;93496.69;2550876;23;20347;-82
2023/06/27 01:11:56;;;;;;;4.68;2.42;;;;;;;12.21;100.00;93490.59;2546247;23;20016;-83
2023/06/27 01:13:09;;;;;;;7.40;2.40;;;;;;;12.21;100.00;93498.63;2538177;23;20010;-85
2023/06/27 01:14:19;;;;;;;9.35;2.33;;;;;;;12.08;100.00;93490.47;2547046;23;20084;-84
2023/06/27 01:15:25;;;;;;;;;;;;;;;12.11;100.00;93492.31;2534826;23;20010;-84
2023/06/27 01:16:34;;;;;;;5.10;2.58;;;;;;;12.14;100.00;93496.09;2523660;23;20074;-85
2023/06/27 01:17:39;;;;;;;5.22;2.20;;;;;;;12.17;100.00;93495.28;2523072;23;20379;-83
2023/06/27 01:18:45;;;;;;;3.35;2.10;;;;;;;12.08;100.00;93499.25;2533389;23;20402;-85
2023/06/27 01:19:52;;;;;;;6.65;2.55;;;;;;;12.05;100.00;93496.66;2522518;23;20013;-84
2023/06/27 01:20:54;;;;;;;6.75;2.47;;;;;;;12.07;100.00;93492.41;2523229;23;20112;-85
2023/06/27 01:22:03;;;;;;;6.95;2.35;;;;;;;12.14;100.00;93493.41;2521086;23;20010;-84
2023/06/27 01:23:33;;;;;;;7.45;2.50;;;;;;;12.07;100.00;93496.97;2536264;23;20401;-86
2023/06/27 01:24:38;;;;;;;6.30;2.45;;;;;;;12.15;100.00;93492.97;2537402;23;20006;-84
2023/06/27 01:25:41;;;;;;;5.18;2.25;;;;;;;12.12;100.00;93496.50;2522971;23;20133;-85
2023/06/27 01:26:42;;;;;;;4.72;2.30;;;;;;;12.15;100.00;93490.31;2533578;23;20002;-84
2023/06/27 01:27:44;;;;;;;7.97;2.40;;;;;;;12.21;100.00;93495.94;2533314;23;20009;-83
2023/06/27 01:28:45;;;;;;;8.15;2.63;;;;;;;12.04;100.00;93495.91;2520648;23;20010;-85
2023/06/27 01:29:45;;;;;;;4.38;3.00;;;;;;;12.16;100.00;93496.41;2545852;23;20001;-85
2023/06/27 01:30:50;;;;;;;6.50;2.40;;;;;;;12.19;100.00;93496.34;2557050;23;20001;-85
2023/06/27 01:32:04;;;;;;;8.18;2.50;;;;;;;12.25;100.00;93491.28;2534953;23;20376;-84
2023/06/27 01:33:13;;;;;;;8.65;2.60;;;;;;;12.06;100.00;93495.47;2539080;23;20483;-83
2023/06/27 01:34:28;;;;;;;5.05;2.40;;;;;;;12.11;100.00;93492.31;2559477;23;20336;-84
2023/06/27 01:36:04;;;;;;;11.90;3.00;;;;;;;12.18;100.00;93491.41;2557674;23;20443;-83
2023/06/27 01:37:11;;;;;;;6.25;2.50;;;;;;;12.21;100.00;93493.28;2524628;23;20088;-84
2023/06/27 01:38:18;;;;;;;5.57;2.63;;;;;;;12.22;100.00;93489.41;2547288;23;20463;-84
2023/06/27 01:39:24;;;;;;;6.03;2.78;;;;;;;12.16;100.00;93491.06;2556478;23;20339;-84
2023/06/27 01:40:30;;;;;;;8.27;2.38;;;;;;;12.27;100.00;93496.94;2545609;23;20080;-84
2023/06/27 01:41:39;;;;;;;5.82;2.53;;;;;;;12.34;100.00;93483.41;2546485;23;20017;-83
2023/06/27 01:42:42;;;;;;;5.47;2.65;;;;;;;12.31;100.00;93486.91;2534059;23;20044;-84
2023/06/27 01:43:45;;;;;;;5.55;2.50;;;;;;;12.33;100.00;93485.31;2533601;23;20033;-82
2023/06/27 01:44:47;;;;;;;11.02;3.03;;;;;;;12.37;100.00;93493.28;2544910;23;20068;-83
2023/06/27 01:46:02;;;;;;;8.65;2.60;;;;;;;12.38;100.00;93494.81;2533015;23;20471;-83
2023/06/27 01:47:04;;;;;;;7.97;2.75;;;;;;;12.38;100.00;93489.44;2538745;23;20332;-85
2023/06/27 01:48:07;;;;;;;6.80;2.78;;;;;;;12.29;100.00;93481.19;2545276;23;20040;-85
2023/06/27 01:49:09;;;;;;;5.30;2.90;;;;;;;12.20;100.00;93481.78;2545000;23;20012;-84
2023/06/27 01:50:12;;;;;;;7.30;2.60;;;;;;;12.13;100.00;93486.56;2533210;23;20009;-85
2023/06/27 01:51:14;;;;;;;8.35;2.60;;;;;;;12.22;100.00;93484.06;2533663;23;20006;-85
2023/06/27 01:52:15;;;;;;;7.03;2.70;;;;;;;12.24;100.00;93481.69;2558098;23;20420;-85
2023/06/27 01:53:16;;;;;;;5.60;2.75;;;;;;;12.19;100.00;93482.94;2545904;23;20037;-84
2023/06/27 01:54:17;;;;;;;6.82;2.90;;;;;;;12.10;100.00;93477.41;2520695;23;20014;-82
2023/06/27 01:55:18;;;;;;;4.70;2.78;;;;;;;12.16;100.00;93474.97;2544223;23;20005;-84
2023/06/27 01:56:20;;;;;;;5.18;2.60;;;;;;;12.20;100.00;93483.69;2544488;23;20133;-83
2023/06/27 01:57:21;;;;;;;5.63;2.70;;;;;;;12.28;100.00;93487.72;2533095;23;20018;-84
2023/06/27 01:58:23;;;;;;;6.68;2.80;;;;;;;12.29;100.00;93481.97;2532698;23;20010;-83
2023/06/27 01:59:24;;;;;;;6.10;3.25;;;;;;;12.28;100.00;93480.44;2520248;23;20010;-85
2023/06/27 02:00:25;;;;;;;6.20;3.08;;;;;;;12.32;100.00;93488.41;2546850;23;20056;-83
2023/06/27 02:01:26;;;;;;;8.20;2.50;;;;;;;12.20;100.00;93476.41;2559551;23;20004;-84
2023/06/27 02:02:27;;;;;;;5.35;3.33;;;;;;;12.18;100.00;93475.34;2534920;23;20397;-84
2023/06/27 02:03:28;;;;;;;8.02;2.70;;;;;;;12.22;100.00;93478.69;2533377;23;20009;-85
2023/06/27 02:04:29;;;;;;;9.38;2.55;;;;;;;12.04;100.00;93479.09;2533523;23;20006;-84
2023/06/27 02:05:30;;;;;;;5.40;2.97;;;;;;;11.96;100.00;93472.34;2545544;23;20092;-83
2023/06/27 02:06:31;;;;;;;6.38;3.10;;;;;;;12.02;100.00;93482.16;2544870;23;20016;-85
2023/06/27 02:07:32;;;;;;;10.27;2.88;;;;;;;12.17;100.00;93471.91;2521036;23;20038;-82
2023/06/27 02:08:33;;;;;;;4.95;2.90;;;;;;;12.11;100.00;93473.53;2532982;23;20025;-84
2023/06/27 02:09:33;;;;;;;5.32;2.75;;;;;;;12.03;100.00;93475.66;2544870;23;20036;-84
2023/06/27 02:10:34;;;;;;;6.72;2.83;;;;;;;11.98;100.00;93475.38;2545593;23;20001;-86
2023/06/27 02:11:35;;;;;;;5.32;2.90;;;;;;;12.10;100.00;93475.47;2545160;23;20040;-85
2023/06/27 02:12:45;;;;;;;10.38;2.80;;;;;;;12.10;100.00;93472.78;2557804;23;20020;-84
2023/06/27 02:13:55;;;;;;;6.53;2.78;;;;;;;12.07;100.00;93479.00;2547396;23;20080;-84
2023/06/27 02:15:06;;;;;;;8.50;3.13;;;;;;;12.10;100.00;93475.47;2557355;23;20005;-84
2023/06/27 02:16:30;;;;;;;8.30;2.92;;;;;;;12.05;100.00;93473.28;2548100;23;20420;-83
2023/06/27 02:17:39;;;;;;;7.80;2.92;;;;;;;12.04;100.00;93473.72;2534685;23;20002;-83
2023/06/27 02:18:52;;;;;;;4.38;2.85;;;;;;;12.08;100.00;93479.75;2536193;23;20041;-84
2023/06/27 02:21:47;;;;;;;5.32;2.83;;;;;;;12.06;100.00;93461.41;2137665;27;20622;-77
2023/06/27 02:22:56;;;;;;;7.47;2.88;;;;;;;12.06;100.00;93466.00;2111076;28;20580;-76
2023/06/27 02:24:05;;;;;;;14.48;3.00;;;;;;;12.04;100.00;93466.44;2106192;27;20036;-77
2023/06/27 02:25:13;;;;;;;7.82;2.83;;;;;;;12.09;100.00;93465.94;2108139;28;20297;-77
2023/06/27 02:26:23;;;;;;;6.22;2.67;;;;;;;12.10;100.00;93462.06;2116713;28;20027;-77
2023/06/27 02:27:34;;;;;;;7.95;3.10;;;;;;;12.01;100.00;93464.56;2110921;28;20406;-77
2023/06/27 02:28:44;;;;;;;8.10;3.22;;;;;;;12.06;100.00;93466.75;2116310;27;20035;-76
2023/06/27 02:29:56;;;;;;;10.45;3.22;;;;;;;12.01;100.00;93461.16;2121595;27;20031;-76
2023/06/27 02:31:06;;;;;;;8.98;2.67;;;;;;;12.01;100.00;93461.91;2124288;27;20066;-77
2023/06/27 02:32:38;;;;;;;8.20;2.95;;;;;;;12.02;100.00;93458.03;2123347;27;20034;-78
2023/06/27 02:33:48;;;;;;;7.50;3.08;;;;;;;12.08;100.00;93463.69;2119355;27;20034;-77
2023/06/27 02:34:57;;;;;;;7.57;3.15;;;;;;;11.97;100.00;93460.47;2118728;27;20023;-76
2023/06/27 02:36:06;;;;;;;7.35;2.85;;;;;;;12.04;100.00;93463.00;2116043;27;20493;-76
2023/06/27 02:37:16;;;;;;;7.00;3.28;;;;;;;12.00;100.00;93456.97;2114435;28;20078;-77
2023/06/27 02:38:25;;;;;;;8.70;3.33;;;;;;;11.93;100.00;93457.09;2118717;27;20030;-76
2023/06/27 02:39:36;;;;;;;10.38;3.10;;;;;;;12.01;100.00;93453.88;2117340;28;20448;-78
2023/06/27 02:40:45;;;;;;;8.65;3.38;;;;;;;12.04;100.00;93452.28;2121438;27;20460;-76
2023/06/27 02:41:54;;;;;;;8.35;3.00;;;;;;;12.10;100.00;93459.41;2117246;27;20055;-77
2023/06/27 02:42:57;;;;;;;7.65;3.05;;;;;;;12.13;100.00;93459.75;2120785;27;20038;-77
2023/06/27 02:44:07;;;;;;;7.75;3.17;;;;;;;12.01;100.00;93461.91;2122222;27;20119;-77
2023/06/27 02:45:16;;;;;;;8.35;3.42;;;;;;;12.10;100.00;93454.03;2124014;27;20039;-77
2023/06/27 02:46:36;;;;;;;7.15;3.28;;;;;;;12.06;100.00;93457.97;2120000;27;20448;-77
2023/06/27 02:47:47;;;;;;;8.70;3.15;;;;;;;12.12;100.00;93456.31;2121177;27;20230;-77
2023/06/27 02:48:54;;;;;;;5.45;3.13;;;;;;;12.07;100.00;93459.47;2111599;27;20528;-76
2023/06/27 02:50:02;;;;;;;10.40;4.10;;;;;;;12.08;100.00;93458.31;2124204;27;20023;-76
2023/06/27 02:51:13;;;;;;;9.70;3.30;;;;;;;12.00;100.00;93463.06;2111677;28;20036;-77
2023/06/27 02:52:21;;;;;;;6.28;3.00;;;;;;;11.93;100.00;93452.50;2117056;28;20770;-76
2023/06/27 02:53:32;;;;;;;9.38;3.25;;;;;;;12.05;100.00;93456.47;2121582;27;20023;-78
2023/06/27 02:54:43;;;;;;;6.35;3.00;;;;;;;12.10;100.00;93454.03;2121924;27;20058;-76
2023/06/27 02:56:01;;;;;;;9.20;3.03;;;;;;;12.07;100.00;93459.47;2110469;28;20027;-77
2023/06/27 02:57:28;;;;;;;9.05;2.95;;;;;;;12.19;100.00;93455.41;2116719;27;20023;-77
2023/06/27 02:59:25;;;;;;;6.85;3.17;;;;;;;12.11;100.00;93462.84;2118794;27;20121;-76
2023/06/27 03:00:39;;;;;;;9.63;3.17;;;;;;;12.07;100.00;93462.94;2121396;27;20044;-76
2023/06/27 03:01:52;;;;;;;7.80;3.17;;;;;;;12.09;100.00;93462.50;2123500;27;20023;-77
2023/06/27 03:03:15;;;;;;;8.15;3.22;;;;;;;12.06;100.00;93460.66;2117739;27;20827;-77
2023/06/27 03:04:40;;;;;;;8.63;3.00;;;;;;;12.08;100.00;93463.69;2115290;27;20679;-77
2023/06/27 03:05:53;;;;;;;7.53;3.00;;;;;;;12.06;100.00;93466.00;2118186;27;20047;-77
2023/06/27 03:07:05;;;;;;;6.82;3.13;;;;;;;12.08;100.00;93461.00;2124077;27;20054;-77
2023/06/27 03:08:15;;;;;;;10.40;3.20;;;;;;;12.30;100.00;93462.03;2123036;27;20092;-76
2023/06/27 03:09:25;;;;;;;6.30;2.90;;;;;;;12.19;100.00;93468.78;2118732;27;20035;-76
2023/06/27 03:10:32;;;;;;;;;;;;;;;12.14;100.00;93469.28;2120245;27;20031;-76
2023/06/27 03:11:40;;;;;;;7.15;3.08;;;;;;;12.14;100.00;93467.38;2113827;28;19923;-76
2023/06/27 03:12:44;;;;;;;5.55;3.10;;;;;;;12.12;100.00;93467.03;2102147;28;20119;-76
2023/06/27 03:13:53;;;;;;;10.27;3.75;;;;;;;12.12;100.00;93468.97;2116054;28;20039;-75
2023/06/27 03:15:03;;;;;;;7.60;3.30;;;;;;;12.08;100.00;93469.78;2113799;28;20690;-75
2023/06/27 03:16:07;;;;;;;;;;;;;;;12.14;100.00;93470.03;2108745;27;20549;-76
2023/06/27 03:17:16;;;;;;;5.22;3.10;;;;;;;12.17;100.00;93473.84;2122124;27;19919;-75
2023/06/27 03:18:24;;;;;;;6.90;3.50;;;;;;;12.15;100.00;93471.56;2117044;27;20392;-77
2023/06/27 03:19:30;;;;;;;8.85;3.67;;;;;;;12.29;100.00;93471.25;2119400;27;20024;-75
2023/06/27 03:20:39;;;;;;;8.13;3.72;;;;;;;12.24;100.00;93476.34;2122304;27;20497;-76
2023/06/27 03:21:49;;;;;;;6.75;3.63;;;;;;;12.26;100.00;93474.75;2127299;27;20122;-75
2023/06/27 03:22:58;;;;;;;9.43;3.45;;;;;;;12.20;100.00;93464.94;2111452;28;20411;-77
2023/06/27 03:25:31;;;;;;;9.30;4.03;;;;;;;12.24;100.00;93470.97;2100133;28;20036;-77
2023/06/27 03:26:36;;;;;;;13.15;4.07;;;;;;;12.35;100.00;93471.50;2100818;28;20129;-78
2023/06/27 03:28:08;;;;;;;8.90;3.78;;;;;;;12.34;100.00;93475.38;2098483;27;20047;-78
2023/06/27 03:29:32;;;;;;;7.53;3.90;;;;;;;12.28;100.00;93467.03;2124324;27;20083;-77
2023/06/27 03:30:45;;;;;;;6.15;3.45;;;;;;;12.30;100.00;93469.31;2121874;27;20038;-77
2023/06/27 03:31:59;;;;;;;9.70;3.72;;;;;;;12.31;100.00;93465.47;2119652;27;20043;-77
2023/06/27 03:33:23;;;;;;;6.35;3.53;;;;;;;12.28;100.00;93468.97;2115878;27;20714;-77
2023/06/27 03:34:32;;;;;;;7.95;3.38;;;;;;;12.40;100.00;93462.97;2115438;27;20114;-76
2023/06/27 03:35:56;;;;;;;8.50;3.40;;;;;;;12.47;100.00;93467.41;2114610;27;20027;-76
2023/06/27 03:37:29;;;;;;;10.70;4.07;;;;;;;12.44;100.00;93462.88;2111921;27;20047;-78
2023/06/27 03:38:38;;;;;;;11.48;5.20;;;;;;;12.44;100.00;93463.63;2105556;28;20791;-76
2023/06/27 03:39:59;;;;;;;13.02;6.50;;;;;;;12.46;100.00;93460.53;2110134;27;20114;-76
2023/06/27 03:41:11;;;;;;;10.23;5.40;;;;;;;12.38;100.00;93456.50;2115337;27;20070;-77
2023/06/27 03:42:17;;;;;;;7.82;4.25;;;;;;;12.47;100.00;93460.13;2116444;27;20023;-76
2023/06/27 03:43:27;;;;;;;9.73;4.00;;;;;;;12.54;100.00;93456.50;2113905;27;20035;-76
2023/06/27 03:44:36;;;;;;;;;;;;;;;12.48;100.00;93466.22;2110466;27;20093;-76
2023/06/27 03:45:43;;;;;;;9.90;3.55;;;;;;;12.44;100.00;93460.94;2110148;27;20033;-77
2023/06/27 03:46:54;;;;;;;8.27;4.18;;;;;;;12.51;100.00;93462.69;2111841;27;20053;-76
2023/06/27 03:48:05;;;;;;;8.20;4.18;;;;;;;12.39;100.00;93453.41;2110992;27;20035;-77
2023/06/27 03:49:13;;;;;;;13.00;3.80;;;;;;;12.45;100.00;93456.34;2116122;27;20032;-77
2023/06/27 03:50:46;;;;;;;11.10;3.75;;;;;;;12.51;100.00;93465.38;2115018;27;20031;-77
2023/06/27 03:51:53;;;;;;;9.23;3.58;;;;;;;12.53;100.00;93463.78;2113946;27;20136;-76
2023/06/27 03:53:06;;;;;;;9.98;4.00;;;;;;;12.49;100.00;93463.13;2115650;27;20118;-76
2023/06/27 03:54:59;;;;;;;8.60;3.70;;;;;;;12.45;100.00;93465.13;2111209;27;20128;-77
2023/06/27 03:56:28;;;;;;;8.80;3.70;;;;;;;12.48;100.00;93464.31;2099137;27;20161;-77
2023/06/27 03:57:42;;;;;;;10.93;3.80;;;;;;;12.48;100.00;93458.94;2114229;27;20496;-78
2023/06/27 03:58:46;;;;;;;9.43;3.60;;;;;;;12.43;100.00;93447.97;2106928;28;20031;-77
2023/06/27 03:59:56;;;;;;;10.75;3.65;;;;;;;12.53;100.00;93450.38;2102995;28;20028;-76
2023/06/27 04:01:08;;;;;;;7.57;3.55;;;;;;;12.57;100.00;93451.06;2107603;27;20031;-77
2023/06/27 04:02:27;;;;;;;6.55;3.30;;;;;;;12.43;100.00;93454.09;2111266;27;20036;-78
2023/06/27 04:03:49;;;;;;;8.73;3.50;;;;;;;12.47;100.00;93449.41;2118145;27;20035;-76
2023/06/27 04:04:54;;;;;;;11.05;4.03;;;;;;;12.56;100.00;93462.22;2107246;27;20093;-76
2023/06/27 04:06:05;;;;;;;8.75;3.88;;;;;;;12.59;100.00;93451.38;2120354;27;20411;-76
2023/06/27 04:07:09;;;;;;;15.57;4.10;;;;;;;12.77;100.00;93455.56;2121332;27;20059;-76
2023/06/27 04:08:14;;;;;;;8.75;4.10;;;;;;;12.75;100.00;93453.31;2115753;27;20034;-77
2023/06/27 04:09:20;;;;;;;11.45;4.03;;;;;;;12.76;100.00;93451.38;2116287;27;20088;-76
2023/06/27 04:10:29;;;;;;;13.88;4.05;;;;;;;12.77;100.00;93459.00;2114434;27;20023;-77
2023/06/27 04:11:39;;;;;;;7.20;3.47;;;;;;;12.68;100.00;93461.53;2113043;27;20024;-76
2023/06/27 04:12:49;;;;;;;12.00;3.95;;;;;;;12.68;100.00;93460.78;2117500;27;20035;-76
2023/06/27 04:14:02;;;;;;;13.43;3.67;;;;;;;12.62;100.00;93463.22;2108908;27;20027;-77
2023/06/27 04:15:10;;;;;;;7.68;4.00;;;;;;;12.52;100.00;93454.25;2109203;28;20366;-77
2023/06/27 04:16:16;;;;;;;;;;;;;;;12.59;100.00;93451.38;2118022;27;20023;-77
2023/06/27 04:17:24;;;;;;;13.50;4.55;;;;;;;12.60;100.00;93455.59;2112909;27;19911;-76
2023/06/27 04:18:57;;;;;;;17.40;3.80;;;;;;;12.70;100.00;93461.13;2117511;27;20088;-81
2023/06/27 04:20:02;;;;;;;8.18;3.47;;;;;;;12.69;100.00;93456.94;2095598;27;20486;-76
2023/06/27 04:21:08;;;;;;;9.68;3.75;;;;;;;12.67;100.00;93448.53;2113924;27;20387;-75
2023/06/27 04:22:16;;;;;;;8.90;4.38;;;;;;;12.63;100.00;93451.31;2118289;27;20073;-77
2023/06/27 04:23:23;;;;;;;7.78;3.83;;;;;;;12.73;100.00;93458.34;2113687;27;20088;-76
2023/06/27 04:24:30;;;;;;;14.73;3.90;;;;;;;12.68;100.00;93455.41;2109492;27;20024;-76
2023/06/27 04:25:36;;;;;;;10.88;3.95;;;;;;;12.70;100.00;93456.50;2113078;27;20666;-76
2023/06/27 04:26:42;;;;;;;11.02;4.22;;;;;;;12.77;100.00;93450.94;2113123;27;20023;-76
2023/06/27 04:27:45;;;;;;;8.10;3.55;;;;;;;12.80;100.00;93454.72;2118685;27;20540;-76
2023/06/27 04:28:54;;;;;;;8.50;3.65;;;;;;;12.85;100.00;93446.16;2102752;28;20570;-76
2023/06/27 04:30:19;;;;;;;8.10;3.50;;;;;;;12.81;100.00;93443.56;2100396;28;20060;-77
2023/06/27 04:31:22;;;;;;;10.35;4.20;;;;;;;12.82;100.00;93453.16;2104935;27;20045;-77
2023/06/27 04:32:53;;;;;;;12.70;4.30;;;;;;;12.95;100.00;93450.53;2110313;27;20040;-76
2023/06/27 04:34:00;;;;;;;8.32;3.40;;;;;;;12.94;100.00;93454.38;2109486;27;20042;-78
2023/06/27 04:35:03;;;;;;;11.82;3.97;;;;;;;12.85;100.00;93460.34;2109929;27;20129;-75
2023/06/27 04:36:08;;;;;;;15.95;4.35;;;;;;;12.85;100.00;93457.66;2112162;27;20028;-77
2023/06/27 04:37:18;;;;;;;13.00;3.90;;;;;;;12.88;100.00;93463.34;2093443;28;20036;-75
2023/06/27 04:38:38;;;;;;;8.75;3.78;;;;;;;12.92;100.00;93458.66;2091917;27;20051;-76
2023/06/27 04:39:39;;;;;;;9.15;3.75;;;;;;;12.94;100.00;93451.69;2094385;28;20039;-75
2023/06/27 04:41:07;;;;;;;13.32;4.32;;;;;;;12.84;100.00;93455.41;2093799;28;20625;-79
2023/06/27 04:42:09;;;;;;;9.43;4.00;;;;;;;12.91;100.00;93463.28;2109650;27;20051;-77
2023/06/27 04:43:11;;;;;;;13.93;4.03;;;;;;;12.92;100.00;93464.03;2111890;27;20040;-76
2023/06/27 04:44:14;;;;;;;9.27;3.75;;;;;;;12.94;100.00;93458.97;2110722;28;20084;-77
2023/06/27 04:45:15;;;;;;;14.60;4.35;;;;;;;12.96;100.00;93462.75;2110642;27;20019;-76
2023/06/27 04:46:16;;;;;;;11.80;3.80;;;;;;;12.97;100.00;93455.47;2102230;28;20027;-75
2023/06/27 04:47:18;;;;;;;8.73;4.05;;;;;;;12.92;100.00;93467.47;2115727;27;20076;-76
2023/06/27 04:48:19;;;;;;;10.57;3.60;;;;;;;13.05;100.00;93460.22;2094974;28;20508;-75
2023/06/27 04:49:20;;;;;;;7.43;3.33;;;;;;;13.12;100.00;93459.28;2096564;28;20032;-76
2023/06/27 04:50:21;;;;;;;13.95;4.47;;;;;;;13.17;100.00;93463.38;2098745;28;20445;-75
2023/06/27 04:51:24;;;;;;;15.00;4.22;;;;;;;13.05;100.00;93465.59;2099331;28;20046;-77
2023/06/27 04:52:26;;;;;;;11.05;4.00;;;;;;;13.02;100.00;93466.44;2113982;27;20029;-78
2023/06/27 04:53:27;;;;;;;10.88;4.20;;;;;;;13.06;100.00;93463.66;2114285;27;20172;-75
2023/06/27 04:54:28;;;;;;;14.45;4.75;;;;;;;13.10;100.00;93461.66;2111754;27;20097;-76
2023/06/27 04:55:29;;;;;;;13.13;4.03;;;;;;;13.09;100.00;93460.91;2105718;28;20024;-77
2023/06/27 04:57:07;;;;;;;7.50;3.95;;;;;;;13.16;100.00;93461.88;2108657;27;20075;-80
2023/06/27 04:58:08;;;;;;;8.20;3.92;;;;;;;13.06;100.00;93459.03;2108650;27;20081;-75
2023/06/27 04:59:11;;;;;;;12.88;4.05;;;;;;;13.05;100.00;93462.91;2110815;28;20049;-76
2023/06/27 05:00:12;;;;;;;9.77;4.03;;;;;;;13.09;100.00;93468.19;2106903;28;20536;-77
2023/06/27 05:01:16;;;;;;;9.95;4.07;;;;;;;13.19;100.00;93461.03;2108550;27;20043;-79
2023/06/27 05:02:20;;;;;;;18.80;4.80;;;;;;;13.29;100.00;93462.72;2105190;28;20129;-78
2023/06/27 05:03:23;;;;;;;20.05;4.45;;;;;;;13.33;100.00;93468.75;2096835;28;20040;-77
2023/06/27 05:04:27;;;;;;;13.68;4.93;;;;;;;13.15;100.00;93466.50;2114060;27;20028;-76
2023/06/27 05:10:06;;;;;;;18.10;4.15;;;;;;;13.18;100.00;93462.97;2083622;28;20104;-76
2023/06/27 05:11:58;;;;;;;13.10;4.13;;;;;;;13.18;100.00;93467.59;2100770;28;20047;-75
2023/06/27 05:13:56;;;;;;;13.57;4.25;;;;;;;13.08;100.00;93456.72;2106278;28;20101;-76
2023/06/27 05:16:16;;;;;;;11.98;4.03;;;;;;;13.16;100.00;93459.94;2105308;28;20028;-77
2023/06/27 05:18:13;;;;;;;;;;;;;;;;;;;;;
2023/06/27 05:29:18;;;;;;;8.75;4.10;;;;;;;13.16;100.00;93465.31;2016139;29;20041;-75
2023/06/27 05:40:43;;;;;;;;;;;;;;;;;;;;;
2023/06/27 05:45:05;;;;;;;;;;;;;;;;;;;;;
2023/06/27 05:46:48;;;;;;;8.52;4.28;;;;;;;13.82;100.00;93466.59;2052296;28;20142;-76
2023/06/27 05:48:18;;;;;;;10.52;4.47;;;;;;;13.92;100.00;93458.69;2091830;28;20074;-78
2023/06/27 05:49:52;;;;;;;;;;;;;;;13.84;100.00;93458.88;2084818;28;20498;-75
2023/06/27 05:54:10;;;;;;;16.48;4.63;;;;;;;14.22;100.00;93460.09;2100493;28;20186;-75
2023/06/27 05:55:59;;;;;;;;;;;;;;;14.33;100.00;93453.22;2085776;28;20302;-75
2023/06/27 05:57:50;;;;;;;13.95;4.07;;;;;;;14.54;100.00;93459.91;2079518;28;20030;-75
2023/06/27 05:59:06;;;;;;;15.13;4.63;;;;;;;14.53;100.00;93460.31;2078825;28;20045;-76
2023/06/27 06:00:21;;;;;;;15.90;4.70;;;;;;;14.71;100.00;93459.78;2070806;28;20851;-76
2023/06/27 06:01:23;;;;;;;12.60;3.97;;;;;;;14.69;100.00;93462.88;2074962;28;20045;-75
2023/06/27 06:03:05;;;;;;;15.07;4.60;;;;;;;14.68;100.00;93464.09;2078149;28;20100;-75
2023/06/27 06:04:30;;;;;;;15.23;4.70;;;;;;;14.80;100.00;93459.88;2099304;28;20102;-75
2023/06/27 06:05:51;;;;;;;16.27;4.70;;;;;;;14.76;100.00;93467.31;2098338;28;20101;-76